Home > Products > Valid Products > TAF

000
FTUS43 KILX 232300
TAFDEC
TAF
KDEC 232323Z 2400/2424 12005KT P6SM BKN200
     FM241500 15008KT P6SM SCT200=



000
FTUS43 KILX 232300
TAFBMI
TAF
KBMI 232323Z 2400/2424 12005KT P6SM SCT200
     FM241500 15008KT P6SM SCT200=



000
FTUS43 KILX 232300
TAFCMI
TAF
KCMI 232323Z 2400/2424 08005KT P6SM SCT200
     FM241500 15008KT P6SM SCT200=



000
FTUS43 KILX 232300
TAFPIA
TAF
KPIA 232323Z 2400/2424 12005KT P6SM BKN200
     FM241500 15008KT P6SM SCT200=



000
FTUS43 KILX 232300
TAFSPI
TAF
KSPI 232323Z 2400/2424 12005KT P6SM BKN200
     FM241500 16008KT P6SM SCT200=



000
FTUS43 KILX 231700
TAFDEC
TAF
KDEC 231723Z 2318/2418 13005KT P6SM SCT250=



000
FTUS43 KILX 231700
TAFSPI
TAF
KSPI 231723Z 2318/2418 14005KT P6SM BKN250=



000
FTUS43 KILX 231700
TAFCMI
TAF
KCMI 231723Z 2318/2418 11005KT P6SM SCT250=



000
FTUS43 KILX 231700
TAFPIA
TAF
KPIA 231723Z 2318/2418 15005KT P6SM BKN250=



000
FTUS43 KILX 231700
TAFBMI
TAF
KBMI 231723Z 2318/2418 15006KT P6SM SCT250=



000
FTUS43 KILX 231100
TAFBMI
TAF
KBMI 231120Z 2312/2412 17005KT P6SM SKC
     FM240000 12005KT P6SM SCT250=



000
FTUS43 KILX 231100
TAFDEC
TAF
KDEC 231120Z 2312/2412 16005KT P6SM SKC
     FM240000 10004KT P6SM SCT250=



000
FTUS43 KILX 231100
TAFPIA
TAF
KPIA 231120Z 2312/2412 17005KT P6SM SKC
     FM240000 12004KT P6SM SCT250=



000
FTUS43 KILX 231100
TAFCMI
TAF
KCMI 231120Z 2312/2412 16005KT P6SM SKC
     FM240000 10004KT P6SM SCT250=



000
FTUS43 KILX 231100
TAFSPI
TAF
KSPI 231120Z 2312/2412 16005KT P6SM SKC
     FM240000 12004KT P6SM SCT250=



000
FTUS43 KILX 230500
TAFBMI
TAF
KBMI 230537Z 2306/2406 VRB03KT P6SM SKC
     FM231400 16007KT P6SM SCT250
     FM240000 12006KT P6SM BKN200=



000
FTUS43 KILX 230500
TAFDEC
TAF
KDEC 230537Z 2306/2406 VRB03KT P6SM SKC
     FM231400 15006KT P6SM SKC
     FM240000 10004KT P6SM BKN200=



000
FTUS43 KILX 230500
TAFSPI
TAF
KSPI 230537Z 2306/2406 VRB03KT P6SM SKC
     FM231400 15005KT P6SM SCT250
     FM240000 13004KT P6SM BKN200=



000
FTUS43 KILX 230500
TAFPIA
TAF
KPIA 230537Z 2306/2406 00000KT P6SM SKC
     FM231400 17006KT P6SM SCT250
     FM240000 13004KT P6SM BKN200=



000
FTUS43 KILX 230500
TAFCMI
TAF
KCMI 230537Z 2306/2406 VRB04KT P6SM SKC
     FM231400 14005KT P6SM SKC
     FM240000 09004KT P6SM BKN250=



000
FTUS43 KILX 222300
TAFSPI
TAF
KSPI 222320Z 2300/2324 VRB03KT P6SM SKC
     FM231400 15005KT P6SM SCT250=



000
FTUS43 KILX 222300
TAFPIA
TAF
KPIA 222320Z 2300/2324 00000KT P6SM SKC
     FM231400 17005KT P6SM SCT250=



000
FTUS43 KILX 222300
TAFCMI
TAF
KCMI 222320Z 2300/2324 VRB04KT P6SM SKC
     FM231400 14004KT P6SM SKC=



000
FTUS43 KILX 222300
TAFBMI
TAF
KBMI 222320Z 2300/2324 VRB03KT P6SM SKC
     FM231400 16006KT P6SM SKC=



000
FTUS43 KILX 222300
TAFDEC
TAF
KDEC 222320Z 2300/2324 VRB03KT P6SM SKC
     FM231400 15005KT P6SM SKC=



000
FTUS43 KILX 221700
TAFBMI
TAF
KBMI 221720Z 2218/2318 33006KT P6SM SKC
     FM230000 VRB03KT P6SM SKC
     FM231400 18006KT P6SM SKC=



000
FTUS43 KILX 221700
TAFPIA
TAF
KPIA 221720Z 2218/2318 35004KT P6SM SKC
     FM230000 00000KT P6SM SKC
     FM231400 18005KT P6SM SKC=



000
FTUS43 KILX 221700
TAFSPI
TAF
KSPI 221720Z 2218/2318 36004KT P6SM SKC
     FM230000 VRB01KT P6SM SKC
     FM231400 16004KT P6SM SKC=



000
FTUS43 KILX 221700
TAFDEC
TAF
KDEC 221720Z 2218/2318 36005KT P6SM SKC
     FM230000 VRB02KT P6SM SKC
     FM231400 16005KT P6SM SKC=



000
FTUS43 KILX 221700
TAFCMI
TAF
KCMI 221720Z 2218/2318 34006KT P6SM FEW030
     FM230000 VRB02KT P6SM SKC
     FM231400 15004KT P6SM SKC=



000
FTUS43 KILX 221100
TAFBMI
TAF
KBMI 221120Z 2212/2312 VRB04KT P6SM SKC=



000
FTUS43 KILX 221100
TAFPIA
TAF
KPIA 221120Z 2212/2312 VRB03KT P6SM SKC=



000
FTUS43 KILX 221100
TAFCMI
TAF
KCMI 221120Z 2212/2312 VRB04KT P6SM SKC=



000
FTUS43 KILX 221100
TAFSPI
TAF
KSPI 221120Z 2212/2312 VRB03KT P6SM SKC=



000
FTUS43 KILX 221100
TAFDEC
TAF
KDEC 221120Z 2212/2312 VRB03KT P6SM SKC=



000
FTUS43 KILX 220500
TAFSPI
TAF
KSPI 220522Z 2206/2306 VRB03KT P6SM SKC=



000
FTUS43 KILX 220500
TAFDEC
TAF
KDEC 220522Z 2206/2306 VRB05KT P6SM SKC=



000
FTUS43 KILX 220500
TAFBMI
TAF
KBMI 220522Z 2206/2306 VRB05KT P6SM SKC=



000
FTUS43 KILX 220500
TAFPIA
TAF
KPIA 220522Z 2206/2306 VRB03KT P6SM SKC=



000
FTUS43 KILX 220500
TAFCMI
TAF
KCMI 220522Z 2206/2306 VRB05KT P6SM SKC=



000
FTUS43 KILX 212300
TAFSPI
TAF
KSPI 212327Z 2200/2224 34011KT P6SM SCT050
     FM220400 34005KT P6SM SKC
     FM221500 VRB03KT P6SM SKC=



000
FTUS43 KILX 212300
TAFPIA
TAF
KPIA 212327Z 2200/2224 33008KT P6SM SCT045
     FM220400 36005KT P6SM SKC
     FM222300 VRB03KT P6SM SKC=



000
FTUS43 KILX 212300
TAFCMI
TAF
KCMI 212327Z 2200/2224 33010KT P6SM SCT050
     FM220400 36006KT P6SM SCT040
     FM221200 36006KT P6SM SKC
     FM222300 VRB03KT P6SM SKC=



000
FTUS43 KILX 212300
TAFBMI
TAF
KBMI 212327Z 2200/2224 32012KT P6SM SCT050
     FM220400 34007KT P6SM SKC
     FM222300 VRB03KT P6SM SKC=



000
FTUS43 KILX 212300
TAFDEC
TAF
KDEC 212327Z 2200/2224 33010G16KT P6SM SCT050
     FM220100 34008KT P6SM SCT050
     FM220500 36005KT P6SM SKC
     FM222300 VRB03KT P6SM SKC=



000
FTUS43 KILX 212200 AAA
TAFBMI
TAF AMD
KBMI 212224Z 2122/2218 32014KT P6SM SCT050
     FM220000 34010KT P6SM SCT045
     FM220300 34008KT P6SM SCT035
     FM220600 34006KT P6SM SKC
     FM221500 36008KT P6SM FEW040=



000
FTUS43 KILX 212100 AAA
TAFDEC
TAF AMD
KDEC 212117Z 2121/2218 32014G24KT P6SM BKN050
     FM212300 34008KT P6SM SCT045
      TEMPO 2123/2201 BKN045
     FM220100 35006KT P6SM SCT040
     FM220500 35005KT P6SM SKC
     FM221500 36007KT P6SM FEW045=



000
FTUS43 KILX 211700 RRA
TAFCMI
TAF
KCMI 211741Z 2118/2218 30016G27KT P6SM SCT045
      TEMPO 2118/2119 BKN045
     FM211900 31015G25KT P6SM BKN045
     FM220000 34008KT P6SM BKN040
     FM220400 35006KT P6SM SCT040
     FM220700 34004KT P6SM SKC
     FM221500 36006KT P6SM FEW040=



000
FTUS43 KILX 211700 RRA
TAFDEC
TAF
KDEC 211741Z 2118/2218 31015G24KT P6SM SCT050
      TEMPO 2119/2123 BKN045
     FM212300 34008KT P6SM SCT045
      TEMPO 2123/2201 BKN045
     FM220100 35006KT P6SM SCT040
     FM220500 35005KT P6SM SKC
     FM221500 36007KT P6SM FEW045=



000
FTUS43 KILX 211700 RRA
TAFPIA
TAF
KPIA 211741Z 2118/2218 33013G23KT P6SM BKN040
     FM212300 34006KT P6SM BKN040
      TEMPO 2123/2201 SCT040
     FM220100 36004KT P6SM SCT040
     FM220500 36003KT P6SM SKC
     FM221500 36005KT P6SM FEW040=



000
FTUS43 KILX 211700 RRA
TAFSPI
TAF
KSPI 211741Z 2118/2218 31014G24KT P6SM SCT050
      TEMPO 2120/2123 BKN045
     FM212300 34006KT P6SM SCT040
     FM220400 34004KT P6SM SKC
     FM221500 36006KT P6SM FEW045=



000
FTUS43 KILX 211700 RRA
TAFBMI
TAF
KBMI 211741Z 2118/2218 31017G27KT P6SM BKN045
     FM220000 34010KT P6SM BKN040
     FM220300 34008KT P6SM SCT035
     FM220600 34006KT P6SM SKC
     FM221500 36008KT P6SM FEW040=



000
FTUS43 KILX 211700 AAA
TAFPIA
TAF AMD
KPIA 211716Z 2117/2212 33013G23KT P6SM BKN040
     FM212300 36005KT P6SM SCT040
     FM220300 36004KT P6SM SKC=



000
FTUS43 KILX 211700 AAA
TAFBMI
TAF AMD
KBMI 211711Z 2117/2212 30017G25KT P6SM BKN045
     FM212300 34008KT P6SM SCT035
     FM220400 34006KT P6SM SKC=



000
FTUS43 KILX 211100
TAFCMI
TAF
KCMI 211120Z 2112/2212 29009KT P6SM SKC
     FM211400 31015G24KT P6SM SCT040
      TEMPO 2119/2123 BKN040
     FM212300 35006KT P6SM SCT040
     FM220500 35005KT P6SM SKC=



000
FTUS43 KILX 211100
TAFSPI
TAF
KSPI 211120Z 2112/2212 28007KT P6SM SKC
     FM211400 31015G23KT P6SM SCT040
      TEMPO 2119/2123 BKN040
     FM212300 34006KT P6SM SCT040
     FM220500 34005KT P6SM SKC=



000
FTUS43 KILX 211100
TAFPIA
TAF
KPIA 211120Z 2112/2212 28007KT P6SM SKC
     FM211400 32012G20KT P6SM SCT040
      TEMPO 2118/2122 BKN040
     FM212300 36005KT P6SM SCT040
     FM220300 36004KT P6SM SKC=



000
FTUS43 KILX 211100
TAFBMI
TAF
KBMI 211120Z 2112/2212 28009KT P6SM SKC
     FM211400 31014G22KT P6SM SCT035
      TEMPO 2118/2122 BKN035
     FM212300 34008KT P6SM SCT035
     FM220400 34006KT P6SM SKC=



000
FTUS43 KILX 211100
TAFDEC
TAF
KDEC 211120Z 2112/2212 29009KT P6SM SKC
     FM211400 31015G24KT P6SM SCT040
      TEMPO 2119/2123 BKN040
     FM212300 35006KT P6SM SCT040
     FM220500 35005KT P6SM SKC=



000
FTUS43 KILX 211000 AAB
TAFSPI
TAF AMD
KSPI 211004Z 2110/2206 31009KT P6SM SKC
     FM211500 32014G22KT P6SM BKN040
     FM212300 34006KT P6SM SCT040=



000
FTUS43 KILX 211000 AAB
TAFPIA
TAF AMD
KPIA 211003Z 2110/2206 31006KT P6SM SKC
     FM211600 32013G21KT P6SM BKN040
     FM212300 36005KT P6SM SCT040=



000
FTUS43 KILX 211000 AAB
TAFBMI
TAF AMD
KBMI 211003Z 2110/2206 31012KT P6SM SKC
     FM211600 31016G24KT P6SM BKN035
     FM212300 35008KT P6SM SCT035=



000
FTUS43 KILX 210900 AAA
TAFDEC
TAF AMD
KDEC 210901Z 2109/2206 30012G20KT P6SM SKC
     FM211600 32015G24KT P6SM BKN040
     FM212300 36006KT P6SM SCT040=



000
FTUS43 KILX 210900 AAB
TAFCMI
TAF AMD
KCMI 210901Z 2109/2206 26008KT 5SM BR SKC
     FM211000 30012G20KT P6SM SKC
     FM211700 32015G24KT P6SM BKN040
     FM212300 36006KT P6SM SCT040=



000
FTUS43 KILX 210900 AAA
TAFBMI
TAF AMD
KBMI 210901Z 2109/2206 32012G22KT P6SM SKC
     FM211600 31016G24KT P6SM BKN035
     FM212300 35008KT P6SM SCT035=



000
FTUS43 KILX 210900 AAA
TAFSPI
TAF AMD
KSPI 210901Z 2109/2206 32012G21KT P6SM SKC
     FM211500 32014G22KT P6SM BKN040
     FM212300 34006KT P6SM SCT040=



000
FTUS43 KILX 210900 AAA
TAFPIA
TAF AMD
KPIA 210901Z 2109/2206 32010G20KT P6SM SKC
     FM211600 32013G21KT P6SM BKN040
     FM212300 36005KT P6SM SCT040=



000
FTUS43 KILX 210700 AAA
TAFCMI
TAF AMD
KCMI 210715Z 2107/2206 26006KT 5SM BR SKC
     FM211200 29012KT P6SM SCT060
     FM211700 32015G24KT P6SM BKN040
     FM212300 36006KT P6SM SCT040=



000
FTUS43 KILX 210500
TAFCMI
TAF
KCMI 210521Z 2106/2206 26006KT 6SM BR SKC
     FM211200 29012KT P6SM SCT060
     FM211700 32015G24KT P6SM BKN040
     FM212300 36006KT P6SM SCT040=



000
FTUS43 KILX 210500
TAFPIA
TAF
KPIA 210521Z 2106/2206 26006KT 6SM BR SKC
     FM210900 30010KT P6SM SCT060
     FM211600 32013G21KT P6SM BKN040
     FM212300 36005KT P6SM SCT040=



000
FTUS43 KILX 210500
TAFBMI
TAF
KBMI 210521Z 2106/2206 26008KT 6SM BR SKC
     FM211100 30013KT P6SM SCT060
     FM211600 31016G24KT P6SM BKN035
     FM212300 35008KT P6SM SCT035=



000
FTUS43 KILX 210500
TAFDEC
TAF
KDEC 210521Z 2106/2206 25007KT 6SM BR SKC
     FM211200 30011KT P6SM SCT060
     FM211600 32015G24KT P6SM BKN040
     FM212300 36006KT P6SM SCT040=



000
FTUS43 KILX 210500
TAFSPI
TAF
KSPI 210521Z 2106/2206 26006KT 6SM BR SKC
     FM211100 31010KT P6SM SCT060
     FM211500 32014G22KT P6SM BKN040
     FM212300 34006KT P6SM SCT040=



    US Dept of Commerce
    National Oceanic and Atmospheric Administration
    National Weather Service
    1325 East West Highway
    Silver Spring, MD 20910
    Page Author: NWS Internet Services Team
Disclaimer
Information Quality
Credits
Glossary
Privacy Policy
Freedom of Information Act (FOIA)
About Us
Career Opportunities